createdAt,value
2017-08-28T00:00:09.494Z,19.66
2017-08-28T00:01:09.799Z,19.57
2017-08-28T00:02:09.488Z,19.59
2017-08-28T00:03:09.174Z,19.7
2017-08-28T00:04:09.798Z,19.67
2017-08-28T00:05:09.897Z,19.63
2017-08-28T00:06:09.480Z,19.67
2017-08-28T00:07:09.483Z,19.59
2017-08-28T00:08:09.266Z,19.66
2017-08-28T00:09:09.165Z,19.66
2017-08-28T00:10:09.472Z,19.7
2017-08-28T00:11:09.467Z,19.67
2017-08-28T00:12:09.468Z,19.7
2017-08-28T00:13:09.351Z,19.66
2017-08-28T00:14:09.148Z,19.71
2017-08-28T00:15:09.492Z,19.6
2017-08-28T00:16:09.461Z,19.72
2017-08-28T00:17:09.870Z,19.71
2017-08-28T00:18:09.452Z,19.6
2017-08-28T00:19:09.455Z,19.67
2017-08-28T00:20:09.132Z,19.75
2017-08-28T00:21:09.231Z,19.66
2017-08-28T00:22:09.443Z,19.71
2017-08-28T00:23:09.124Z,19.66
2017-08-28T00:24:09.438Z,19.63
2017-08-28T00:25:09.121Z,19.56
2017-08-28T00:26:09.119Z,19.63
2017-08-28T00:27:09.432Z,19.66
2017-08-28T00:28:09.115Z,19.6
2017-08-28T00:29:09.114Z,19.59
2017-08-28T00:30:09.426Z,19.57
2017-08-28T00:31:09.422Z,19.64
2017-08-28T00:32:09.420Z,19.53
2017-08-28T00:33:09.200Z,19.57
2017-08-28T00:34:09.423Z,19.56
2017-08-28T00:35:09.831Z,19.64
2017-08-28T00:36:09.097Z,19.56
2017-08-28T00:37:09.404Z,19.6
2017-08-28T00:38:09.402Z,19.57
2017-08-28T00:39:09.405Z,19.59
2017-08-28T00:40:09.400Z,19.57
2017-08-28T00:41:09.399Z,19.57
2017-08-28T00:42:09.709Z,19.57
2017-08-28T00:43:09.709Z,19.52
2017-08-28T00:44:09.707Z,19.57
2017-08-28T00:45:09.800Z,19.59
2017-08-28T00:46:09.486Z,19.63
2017-08-28T00:47:09.382Z,19.56
2017-08-28T00:48:09.071Z,19.59
2017-08-28T00:49:09.690Z,19.55
2017-08-28T00:50:09.063Z,19.57
2017-08-28T00:51:09.158Z,19.57
2017-08-28T00:52:09.059Z,19.53
2017-08-28T00:53:09.367Z,19.56
2017-08-28T00:54:09.680Z,19.59
2017-08-28T00:55:09.362Z,19.55
2017-08-28T00:56:09.357Z,19.53
2017-08-28T00:57:09.667Z,19.53
2017-08-28T00:58:09.042Z,19.55
2017-08-28T00:59:09.353Z,19.53
2017-08-28T01:00:09.350Z,19.52
2017-08-28T01:01:09.035Z,19.59
2017-08-28T01:02:09.672Z,19.56
2017-08-28T01:03:09.347Z,19.52
2017-08-28T01:04:09.447Z,19.49
2017-08-28T01:05:09.338Z,19.59
2017-08-28T01:06:09.344Z,19.57
2017-08-28T01:07:09.022Z,19.59
2017-08-28T01:08:09.331Z,19.55
2017-08-28T01:09:09.016Z,19.53
2017-08-28T01:10:09.642Z,19.56
2017-08-28T01:11:09.641Z,19.62
2017-08-28T01:12:09.637Z,19.56
2017-08-28T01:13:09.318Z,19.57
2017-08-28T01:14:09.315Z,19.56
2017-08-28T01:15:09.002Z,19.53
2017-08-28T01:16:08.999Z,19.55
2017-08-28T01:17:09.306Z,19.56
2017-08-28T01:18:09.310Z,19.57
2017-08-28T01:19:09.404Z,19.53
2017-08-28T01:20:09.302Z,19.59
2017-08-28T01:21:09.297Z,19.62
2017-08-28T01:22:09.613Z,19.59
2017-08-28T01:23:09.712Z,19.53
2017-08-28T01:24:08.977Z,19.66
2017-08-28T01:25:09.293Z,19.6
2017-08-28T01:26:09.075Z,19.64
2017-08-28T01:27:09.286Z,19.7
2017-08-28T01:28:09.612Z,19.64
2017-08-28T01:29:09.277Z,19.66
2017-08-28T01:30:09.380Z,19.64
2017-08-28T01:31:09.272Z,19.56
2017-08-28T01:32:09.589Z,19.55
2017-08-28T01:33:08.955Z,19.59
2017-08-28T01:34:08.953Z,19.6
2017-08-28T01:35:08.948Z,19.53
2017-08-28T01:36:09.363Z,19.57
2017-08-28T01:37:09.259Z,19.59
2017-08-28T01:38:09.255Z,19.62
2017-08-28T01:39:09.256Z,19.56
2017-08-28T01:40:09.564Z,19.57
2017-08-28T01:41:09.559Z,19.6
2017-08-28T01:42:08.935Z,19.56
2017-08-28T01:43:09.241Z,19.56
2017-08-28T01:44:08.930Z,19.52
2017-08-28T01:45:09.239Z,19.52
2017-08-28T01:46:08.925Z,19.53
2017-08-28T01:47:09.238Z,19.52
2017-08-28T01:48:09.233Z,19.48
2017-08-28T01:49:09.548Z,19.53
2017-08-28T01:50:09.223Z,19.47
2017-08-28T01:51:09.541Z,19.44
2017-08-28T01:52:08.909Z,19.48
2017-08-28T01:53:08.903Z,19.48
2017-08-28T01:54:09.216Z,19.41
2017-08-28T01:55:09.215Z,19.44
2017-08-28T01:56:09.537Z,19.55
2017-08-28T01:57:09.523Z,19.41
2017-08-28T01:58:09.210Z,19.41
2017-08-28T01:59:09.206Z,19.49
2017-08-28T02:00:09.519Z,19.45
2017-08-28T02:01:09.301Z,19.44
2017-08-28T02:02:09.296Z,19.35
2017-08-28T02:03:09.197Z,19.41
2017-08-28T02:04:09.512Z,19.39
2017-08-28T02:05:08.878Z,19.41
2017-08-28T02:06:08.885Z,19.29
2017-08-28T02:07:09.197Z,19.27
2017-08-28T02:08:08.870Z,19.37
2017-08-28T02:09:09.181Z,19.35
2017-08-28T02:10:08.864Z,19.34
2017-08-28T02:11:09.491Z,19.26
2017-08-28T02:12:08.958Z,19.24
2017-08-28T02:13:09.486Z,19.24
2017-08-28T02:14:09.479Z,19.23
2017-08-28T02:15:09.166Z,19.2
2017-08-28T02:16:08.870Z,19.27
2017-08-28T02:17:09.474Z,19.27
2017-08-28T02:18:09.161Z,19.23
2017-08-28T02:19:09.470Z,19.27
2017-08-28T02:20:08.851Z,19.16
2017-08-28T02:21:09.459Z,19.16
2017-08-28T02:22:09.252Z,19.24
2017-08-28T02:23:08.827Z,19.22
2017-08-28T02:24:09.138Z,19.22
2017-08-28T02:25:09.490Z,19.17
2017-08-28T02:26:09.134Z,19.2
2017-08-28T02:27:09.130Z,19.22
2017-08-28T02:28:09.136Z,19.08
2017-08-28T02:29:09.126Z,19.11
2017-08-28T02:30:09.128Z,19
2017-08-28T02:31:09.124Z,19.04
2017-08-28T02:32:09.118Z,18.97
2017-08-28T02:33:09.116Z,19
2017-08-28T02:34:09.115Z,19.07
2017-08-28T02:35:09.112Z,19.01
2017-08-28T02:36:09.214Z,19.04
2017-08-28T02:37:09.424Z,18.98
2017-08-28T02:38:09.418Z,19.01
2017-08-28T02:39:09.417Z,19
2017-08-28T02:40:08.887Z,19.05
2017-08-28T02:41:09.409Z,19.04
2017-08-28T02:42:08.780Z,18.98
2017-08-28T02:43:09.197Z,19.04
2017-08-28T02:44:09.406Z,18.97
2017-08-28T02:45:09.085Z,19.07
2017-08-28T02:46:09.401Z,19.04
2017-08-28T02:47:08.771Z,19.04
2017-08-28T02:48:09.116Z,18.98
2017-08-28T02:49:09.392Z,18.92
2017-08-28T02:50:09.079Z,18.91
2017-08-28T02:51:09.074Z,18.94
2017-08-28T02:52:08.756Z,18.89
2017-08-28T02:53:08.754Z,18.89
2017-08-28T02:54:09.162Z,19.01
2017-08-28T02:55:09.062Z,18.89
2017-08-28T02:56:09.380Z,18.86
2017-08-28T02:57:09.367Z,18.81
2017-08-28T02:58:08.740Z,18.82
2017-08-28T02:59:09.365Z,18.82
2017-08-28T03:00:09.361Z,18.85
2017-08-28T03:01:09.359Z,18.82
2017-08-28T03:02:08.728Z,18.86
2017-08-28T03:03:09.071Z,18.7
2017-08-28T03:04:08.721Z,18.79
2017-08-28T03:05:08.722Z,18.78
2017-08-28T03:06:08.720Z,18.66
2017-08-28T03:07:08.717Z,18.7
2017-08-28T03:08:09.347Z,18.78
2017-08-28T03:09:09.026Z,18.78
2017-08-28T03:10:09.441Z,18.64
2017-08-28T03:11:09.332Z,18.67
2017-08-28T03:12:09.325Z,18.7
2017-08-28T03:13:09.112Z,18.67
2017-08-28T03:14:08.697Z,18.66
2017-08-28T03:15:09.114Z,18.68
2017-08-28T03:16:09.106Z,18.78
2017-08-28T03:17:09.003Z,18.76
2017-08-28T03:18:09.001Z,18.67
2017-08-28T03:19:08.685Z,18.68
2017-08-28T03:20:08.681Z,18.67
2017-08-28T03:21:09.309Z,18.73
2017-08-28T03:22:08.778Z,18.64
2017-08-28T03:23:08.985Z,18.7
2017-08-28T03:24:08.671Z,18.68
2017-08-28T03:25:09.305Z,18.68
2017-08-28T03:26:09.412Z,18.68
2017-08-28T03:27:08.976Z,18.58
2017-08-28T03:28:08.974Z,18.64
2017-08-28T03:29:08.971Z,18.58
2017-08-28T03:30:09.288Z,18.55
2017-08-28T03:31:08.970Z,18.63
2017-08-28T03:32:08.650Z,18.53
2017-08-28T03:33:08.959Z,18.53
2017-08-28T03:34:08.958Z,18.57
2017-08-28T03:35:09.271Z,18.55
2017-08-28T03:36:09.375Z,18.55
2017-08-28T03:37:08.636Z,18.66
2017-08-28T03:38:09.261Z,18.57
2017-08-28T03:39:09.049Z,18.51
2017-08-28T03:40:08.630Z,18.46
2017-08-28T03:41:09.253Z,18.46
2017-08-28T03:42:09.050Z,18.45
2017-08-28T03:43:09.248Z,18.41
2017-08-28T03:44:08.937Z,18.34
2017-08-28T03:45:08.615Z,18.34
2017-08-28T03:46:08.923Z,18.36
2017-08-28T03:47:08.925Z,18.23
2017-08-28T03:48:08.708Z,18.34
2017-08-28T03:49:09.233Z,18.28
2017-08-28T03:50:09.230Z,18.31
2017-08-28T03:51:09.014Z,18.3
2017-08-28T03:52:08.596Z,18.28
2017-08-28T03:53:09.011Z,18.21
2017-08-28T03:54:09.222Z,18.26
2017-08-28T03:55:08.909Z,18.18
2017-08-28T03:56:08.898Z,18.27
2017-08-28T03:57:08.897Z,18.27
2017-08-28T03:58:08.991Z,18.15
2017-08-28T03:59:08.903Z,18.09
2017-08-28T04:00:09.198Z,18.19
2017-08-28T04:01:08.883Z,18.08
2017-08-28T04:02:09.194Z,18.13
2017-08-28T04:03:09.189Z,18.13
2017-08-28T04:04:08.874Z,18.05
2017-08-28T04:05:08.883Z,18.11
2017-08-28T04:06:08.871Z,18.15
2017-08-28T04:07:08.870Z,18.18
2017-08-28T04:08:08.864Z,18.12
2017-08-28T04:09:08.554Z,18.06
2017-08-28T04:10:08.548Z,18.06
2017-08-28T04:11:08.863Z,18.06
2017-08-28T04:12:08.859Z,18.08
2017-08-28T04:13:08.545Z,18.06
2017-08-28T04:14:09.165Z,18.11
2017-08-28T04:15:08.849Z,18.12
2017-08-28T04:16:08.532Z,18.18
2017-08-28T04:17:08.529Z,18.13
2017-08-28T04:18:08.837Z,18.08
2017-08-28T04:19:08.843Z,18.11
2017-08-28T04:20:08.834Z,18.11
2017-08-28T04:21:08.837Z,18.06
2017-08-28T04:22:08.826Z,18.05
2017-08-28T04:23:08.824Z,18.08
2017-08-28T04:24:08.510Z,18.05
2017-08-28T04:25:08.506Z,18.03
2017-08-28T04:26:08.503Z,18.06
2017-08-28T04:27:08.601Z,18.09
2017-08-28T04:28:08.811Z,18.05
2017-08-28T04:29:08.807Z,17.98
2017-08-28T04:30:09.118Z,18.02
2017-08-28T04:31:09.118Z,17.94
2017-08-28T04:32:08.484Z,17.95
2017-08-28T04:33:08.486Z,17.93
2017-08-28T04:34:08.792Z,17.93
2017-08-28T04:35:08.481Z,17.86
2017-08-28T04:36:08.479Z,17.97
2017-08-28T04:37:09.101Z,17.94
2017-08-28T04:38:08.886Z,18.05
2017-08-28T04:39:08.780Z,17.93
2017-08-28T04:40:09.092Z,17.91
2017-08-28T04:41:08.462Z,17.91
2017-08-28T04:42:08.873Z,17.95
2017-08-28T04:43:08.777Z,17.97
2017-08-28T04:44:08.458Z,17.94
2017-08-28T04:45:08.763Z,17.98
2017-08-28T04:46:08.448Z,18.02
2017-08-28T04:47:08.547Z,17.98
2017-08-28T04:48:08.753Z,17.94
2017-08-28T04:49:08.752Z,17.95
2017-08-28T04:50:08.758Z,18.08
2017-08-28T04:51:08.434Z,18.11
2017-08-28T04:52:08.748Z,18
2017-08-28T04:53:09.163Z,18
2017-08-28T04:54:08.427Z,18.05
2017-08-28T04:55:09.152Z,18.11
2017-08-28T04:56:08.736Z,18.06
2017-08-28T04:57:08.439Z,18.18
2017-08-28T04:58:09.044Z,18.09
2017-08-28T04:59:08.727Z,18.12
2017-08-28T05:00:09.035Z,18.15
2017-08-28T05:01:08.720Z,18.23
2017-08-28T05:02:09.034Z,18.19
2017-08-28T05:03:09.031Z,18.26
2017-08-28T05:04:08.715Z,18.31
2017-08-28T05:05:09.021Z,18.39
2017-08-28T05:06:09.022Z,18.3
2017-08-28T05:07:08.391Z,18.36
2017-08-28T05:08:09.017Z,18.31
2017-08-28T05:09:09.010Z,18.37
2017-08-28T05:10:08.382Z,18.33
2017-08-28T05:11:09.004Z,18.37
2017-08-28T05:12:08.380Z,18.45
2017-08-28T05:13:09.009Z,18.49
2017-08-28T05:14:08.685Z,18.57
2017-08-28T05:15:08.369Z,18.55
2017-08-28T05:16:08.678Z,18.57
2017-08-28T05:17:08.682Z,18.64
2017-08-28T05:18:08.672Z,18.63
2017-08-28T05:19:08.770Z,18.67
2017-08-28T05:20:08.672Z,18.73
2017-08-28T05:21:08.666Z,18.82
2017-08-28T05:22:08.664Z,18.81
2017-08-28T05:23:08.660Z,18.89
2017-08-28T05:24:08.344Z,18.86
2017-08-28T05:25:08.656Z,19.08
2017-08-28T05:26:08.977Z,19.07
2017-08-28T05:27:08.653Z,19.15
2017-08-28T05:28:08.647Z,19.27
2017-08-28T05:29:08.957Z,19.38
2017-08-28T05:30:08.331Z,19.47
2017-08-28T05:31:08.641Z,19.64
2017-08-28T05:32:08.325Z,19.75
2017-08-28T05:33:08.949Z,19.93
2017-08-28T05:34:08.635Z,20
2017-08-28T05:35:08.944Z,20.07
2017-08-28T05:36:08.634Z,20.03
2017-08-28T05:37:08.626Z,20.08
2017-08-28T05:38:08.417Z,20.1
2017-08-28T05:39:08.934Z,20.08
2017-08-28T05:40:08.617Z,20.02
2017-08-28T05:41:08.924Z,20.02
2017-08-28T05:42:08.623Z,19.97
2017-08-28T05:43:08.611Z,19.92
2017-08-28T05:44:08.921Z,19.84
2017-08-28T05:45:08.604Z,19.84
2017-08-28T05:46:09.017Z,19.87
2017-08-28T05:47:08.915Z,19.84
2017-08-28T05:48:08.598Z,19.89
2017-08-28T05:49:08.910Z,19.78
2017-08-28T05:50:08.907Z,19.85
2017-08-28T05:51:08.899Z,19.85
2017-08-28T05:52:08.904Z,19.85
2017-08-28T05:53:08.899Z,19.87
2017-08-28T05:54:08.998Z,19.74
2017-08-28T05:55:08.994Z,19.84
2017-08-28T05:56:08.575Z,19.89
2017-08-28T05:57:08.574Z,19.92
2017-08-28T05:58:08.260Z,19.87
2017-08-28T05:59:08.570Z,19.92
2017-08-28T06:00:08.569Z,19.93
2017-08-28T06:01:08.565Z,20
2017-08-28T06:02:08.667Z,20.11
2017-08-28T06:03:08.564Z,20.24
2017-08-28T06:04:08.870Z,20.46
2017-08-28T06:05:08.872Z,20.82
2017-08-28T06:06:08.868Z,21.14
2017-08-28T06:07:08.864Z,21.4
2017-08-28T06:08:08.570Z,21.66
2017-08-28T06:09:08.865Z,21.89
2017-08-28T06:10:08.880Z,22.06
2017-08-28T06:11:08.545Z,22.22
2017-08-28T06:12:08.230Z,22.43
2017-08-28T06:13:08.537Z,22.59
2017-08-28T06:14:08.535Z,22.78
2017-08-28T06:15:08.223Z,23.04
2017-08-28T06:16:08.532Z,23.17
2017-08-28T06:17:08.219Z,23.37
2017-08-28T06:18:08.528Z,23.54
2017-08-28T06:19:08.839Z,23.67
2017-08-28T06:20:08.525Z,23.84
2017-08-28T06:21:08.523Z,23.92
2017-08-28T06:22:08.207Z,24
2017-08-28T06:23:08.839Z,24.1
2017-08-28T06:24:08.833Z,24.28
2017-08-28T06:25:08.834Z,24.4
2017-08-28T06:26:08.203Z,24.53
2017-08-28T06:27:08.829Z,24.63
2017-08-28T06:28:08.514Z,24.46
2017-08-28T06:29:08.507Z,24.24
2017-08-28T06:30:08.824Z,24.13
2017-08-28T06:31:08.508Z,23.99
2017-08-28T06:32:08.194Z,23.74
2017-08-28T06:33:08.818Z,23.55
2017-08-28T06:34:08.501Z,23.42
2017-08-28T06:35:08.823Z,23.29
2017-08-28T06:36:08.600Z,23.06
2017-08-28T06:37:08.810Z,23.06
2017-08-28T06:38:08.817Z,22.89
2017-08-28T06:39:08.817Z,22.84
2017-08-28T06:40:08.810Z,22.73
2017-08-28T06:41:08.180Z,22.59
2017-08-28T06:42:08.803Z,22.59
2017-08-28T06:43:08.493Z,22.55
2017-08-28T06:44:08.488Z,22.59
2017-08-28T06:45:08.486Z,22.58
2017-08-28T06:46:08.801Z,22.53
2017-08-28T06:47:08.792Z,22.55
2017-08-28T06:48:08.477Z,22.53
2017-08-28T06:49:08.891Z,22.56
2017-08-28T06:50:08.479Z,22.55
2017-08-28T06:51:08.162Z,22.56
2017-08-28T06:52:08.473Z,22.58
2017-08-28T06:53:08.784Z,22.65
2017-08-28T06:54:08.471Z,22.71
2017-08-28T06:55:08.154Z,22.77
2017-08-28T06:56:08.467Z,22.88
2017-08-28T06:57:08.882Z,22.89
2017-08-28T06:58:08.782Z,22.89
2017-08-28T06:59:08.467Z,22.93
2017-08-28T07:00:08.777Z,22.96
2017-08-28T07:01:08.781Z,23.06
2017-08-28T07:02:08.457Z,23.07
2017-08-28T07:03:08.147Z,23.08
2017-08-28T07:04:08.865Z,23.11
2017-08-28T07:05:08.762Z,23.06
2017-08-28T07:06:08.449Z,23.07
2017-08-28T07:07:08.758Z,23.14
2017-08-28T07:08:08.760Z,23.47
2017-08-28T07:09:08.444Z,23.62
2017-08-28T07:10:08.443Z,23.76
2017-08-28T07:11:08.752Z,23.74
2017-08-28T07:12:08.436Z,23.79
2017-08-28T07:13:08.749Z,23.76
2017-08-28T07:14:08.848Z,23.81
2017-08-28T07:15:08.747Z,23.92
2017-08-28T07:16:08.430Z,23.92
2017-08-28T07:17:08.740Z,23.92
2017-08-28T07:18:08.432Z,23.96
2017-08-28T07:19:08.739Z,24.07
2017-08-28T07:20:08.424Z,24.09
2017-08-28T07:21:08.424Z,24.34
2017-08-28T07:22:08.423Z,24.66
2017-08-28T07:23:08.104Z,25.16
2017-08-28T07:24:08.414Z,25.26
2017-08-28T07:25:08.416Z,25.25
2017-08-28T07:26:08.413Z,25.18
2017-08-28T07:27:08.408Z,25.07
2017-08-28T07:28:08.412Z,24.88
2017-08-28T07:29:08.406Z,24.84
2017-08-28T07:30:08.745Z,24.89
2017-08-28T07:31:08.410Z,24.86
2017-08-28T07:32:08.405Z,24.88
2017-08-28T07:33:08.406Z,24.93
2017-08-28T07:34:08.724Z,24.97
2017-08-28T07:35:08.400Z,24.88
2017-08-28T07:36:08.396Z,24.68
2017-08-28T07:37:08.082Z,24.61
2017-08-28T07:38:08.712Z,24.62
2017-08-28T07:39:08.078Z,24.55
2017-08-28T07:40:08.390Z,24.56
2017-08-28T07:41:08.491Z,24.63
2017-08-28T07:42:08.708Z,24.77
2017-08-28T07:43:08.386Z,25.01
2017-08-28T07:44:08.484Z,25.31
2017-08-28T07:45:08.385Z,25.74
2017-08-28T07:46:08.070Z,26.22
2017-08-28T07:47:08.379Z,26.63
2017-08-28T07:48:08.694Z,27.05
2017-08-28T07:49:08.686Z,27.43
2017-08-28T07:50:08.688Z,27.66
2017-08-28T07:51:08.366Z,27.94
2017-08-28T07:52:08.371Z,28.18
2017-08-28T07:53:08.377Z,28.4
2017-08-28T07:54:08.370Z,28.6
2017-08-28T07:55:08.676Z,28.72
2017-08-28T07:56:08.364Z,28.68
2017-08-28T07:57:08.676Z,28.75
2017-08-28T07:58:08.050Z,28.84
2017-08-28T07:59:08.670Z,28.97
2017-08-28T08:00:08.670Z,28.97
2017-08-28T08:01:08.354Z,29
2017-08-28T08:02:08.360Z,28.68
2017-08-28T08:03:08.665Z,28.68
2017-08-28T08:04:08.040Z,28.8
2017-08-28T08:05:08.450Z,28.94
2017-08-28T08:06:08.345Z,29.25
2017-08-28T08:07:08.351Z,29.34
2017-08-28T08:08:08.034Z,29.49
2017-08-28T08:09:08.664Z,29.68
2017-08-28T08:10:08.655Z,29.89
2017-08-28T08:11:08.649Z,29.96
2017-08-28T08:12:08.027Z,30.06
2017-08-28T08:13:08.754Z,30.17
2017-08-28T08:14:08.338Z,30.27
2017-08-28T08:15:08.339Z,30.26
2017-08-28T08:16:08.336Z,30.16
2017-08-28T08:17:08.340Z,29.92
2017-08-28T08:18:08.637Z,29.53
2017-08-28T08:19:08.015Z,29.28
2017-08-28T08:20:08.328Z,28.57
2017-08-28T08:21:08.635Z,28.22
2017-08-28T08:22:08.644Z,27.78
2017-08-28T08:23:08.008Z,27.38
2017-08-28T08:24:08.318Z,27.03
2017-08-28T08:25:08.319Z,26.91
2017-08-28T08:26:08.318Z,26.71
2017-08-28T08:27:08.316Z,26.36
2017-08-28T08:28:08.316Z,26.19
2017-08-28T08:29:08.316Z,25.95
2017-08-28T08:30:08.310Z,25.71
2017-08-28T08:31:08.314Z,25.74
2017-08-28T08:32:08.307Z,25.71
2017-08-28T08:33:08.096Z,25.73
2017-08-28T08:34:08.306Z,25.63
2017-08-28T08:35:07.990Z,25.67
2017-08-28T08:36:08.090Z,25.67
2017-08-28T08:37:08.299Z,25.67
2017-08-28T08:38:08.300Z,25.63
2017-08-28T08:39:08.299Z,25.76
2017-08-28T08:40:07.982Z,25.76
2017-08-28T08:41:08.083Z,25.8
2017-08-28T08:42:08.394Z,25.91
2017-08-28T08:43:08.288Z,25.98
2017-08-28T08:44:08.291Z,25.91
2017-08-28T08:45:08.603Z,25.98
2017-08-28T08:46:08.287Z,25.95
2017-08-28T08:47:08.290Z,25.86
2017-08-28T08:48:07.971Z,25.92
2017-08-28T08:49:08.291Z,25.88
2017-08-28T08:50:07.968Z,25.88
2017-08-28T08:51:08.285Z,25.81
2017-08-28T08:52:07.963Z,25.86
2017-08-28T08:53:07.964Z,25.86
2017-08-28T08:54:08.583Z,25.86
2017-08-28T08:55:07.986Z,25.74
2017-08-28T08:56:08.062Z,25.81
2017-08-28T08:57:07.956Z,25.76
2017-08-28T08:58:08.272Z,25.81
2017-08-28T08:59:08.057Z,25.77
2017-08-28T09:00:08.265Z,25.86
2017-08-28T09:01:08.260Z,25.76
2017-08-28T09:02:08.360Z,25.78
2017-08-28T09:03:08.263Z,25.85
2017-08-28T09:04:08.257Z,25.73
2017-08-28T09:05:08.261Z,25.83
2017-08-28T09:06:08.258Z,25.83
2017-08-28T09:07:08.252Z,25.83
2017-08-28T09:08:08.570Z,25.89
2017-08-28T09:09:08.037Z,25.93
2017-08-28T09:10:08.661Z,25.95
2017-08-28T09:11:08.348Z,25.95
2017-08-28T09:12:08.244Z,25.92
2017-08-28T09:13:08.241Z,25.98
2017-08-28T09:14:08.242Z,25.95
2017-08-28T09:15:08.554Z,25.93
2017-08-28T09:16:08.551Z,25.83
2017-08-28T09:17:08.546Z,25.88
2017-08-28T09:18:08.242Z,25.83
2017-08-28T09:19:08.235Z,25.89
2017-08-28T09:20:07.920Z,25.89
2017-08-28T09:21:07.916Z,25.85
2017-08-28T09:22:08.667Z,25.85
2017-08-28T09:23:08.545Z,25.89
2017-08-28T09:24:07.913Z,25.92
2017-08-28T09:25:08.226Z,25.89
2017-08-28T09:26:08.225Z,25.76
2017-08-28T09:27:08.224Z,25.81
2017-08-28T09:28:08.221Z,25.88
2017-08-28T09:29:08.540Z,25.77
2017-08-28T09:30:08.216Z,25.76
2017-08-28T09:31:08.529Z,25.81
2017-08-28T09:32:07.901Z,25.85
2017-08-28T09:33:08.216Z,25.86
2017-08-28T09:34:08.211Z,25.91
2017-08-28T09:35:08.208Z,25.88
2017-08-28T09:36:08.620Z,25.98
2017-08-28T09:37:07.997Z,25.98
2017-08-28T09:38:08.529Z,26.07
2017-08-28T09:39:08.204Z,26.13
2017-08-28T09:40:08.512Z,26.08
2017-08-28T09:41:08.202Z,26.1
2017-08-28T09:42:08.512Z,26.1
2017-08-28T09:43:08.203Z,26.13
2017-08-28T09:44:07.880Z,26.11
2017-08-28T09:45:08.200Z,26.1
2017-08-28T09:46:08.192Z,26.11
2017-08-28T09:47:08.190Z,26.11
2017-08-28T09:48:08.194Z,26.1
2017-08-28T09:49:08.511Z,26.1
2017-08-28T09:50:08.189Z,26.1
2017-08-28T09:51:08.184Z,26.1
2017-08-28T09:52:07.869Z,26.08
2017-08-28T09:53:07.867Z,26.07
2017-08-28T09:54:08.182Z,26.11
2017-08-28T09:55:08.178Z,26.1
2017-08-28T09:56:08.176Z,26.1
2017-08-28T09:57:07.964Z,26.08
2017-08-28T09:58:07.863Z,26.16
2017-08-28T09:59:08.171Z,26.19
2017-08-28T10:00:08.173Z,26.15
2017-08-28T10:01:08.171Z,26.22
2017-08-28T10:02:08.168Z,26.16
2017-08-28T10:03:08.169Z,26.22
2017-08-28T10:04:08.165Z,26.16
2017-08-28T10:05:08.575Z,26.16
2017-08-28T10:06:08.168Z,26.23
2017-08-28T10:07:08.164Z,26.15
2017-08-28T10:08:08.159Z,26.26
2017-08-28T10:09:07.845Z,26.3
2017-08-28T10:10:08.154Z,26.3
2017-08-28T10:11:08.153Z,26.29
2017-08-28T10:12:08.469Z,26.29
2017-08-28T10:13:08.157Z,26.23
2017-08-28T10:14:08.153Z,26.16
2017-08-28T10:15:08.461Z,26.16
2017-08-28T10:16:08.150Z,26.13
2017-08-28T10:17:08.144Z,26.19
2017-08-28T10:18:08.140Z,26.23
2017-08-28T10:19:08.144Z,26.26
2017-08-28T10:20:08.137Z,26.27
2017-08-28T10:21:08.143Z,26.3
2017-08-28T10:22:07.824Z,26.29
2017-08-28T10:23:08.136Z,26.36
2017-08-28T10:24:08.134Z,26.34
2017-08-28T10:25:08.148Z,26.36
2017-08-28T10:26:08.127Z,26.41
2017-08-28T10:27:07.819Z,26.39
2017-08-28T10:28:07.913Z,26.41
2017-08-28T10:29:08.123Z,26.34
2017-08-28T10:30:08.132Z,26.48
2017-08-28T10:31:08.435Z,26.55
2017-08-28T10:32:08.136Z,26.53
2017-08-28T10:33:08.553Z,26.53
2017-08-28T10:34:08.117Z,26.61
2017-08-28T10:35:08.434Z,26.63
2017-08-28T10:36:08.434Z,26.61
2017-08-28T10:37:08.119Z,26.64
2017-08-28T10:38:08.214Z,26.66
2017-08-28T10:39:08.421Z,26.67
2017-08-28T10:40:07.795Z,26.67
2017-08-28T10:41:07.796Z,26.68
2017-08-28T10:42:08.112Z,26.83
2017-08-28T10:43:08.103Z,26.76
2017-08-28T10:44:08.102Z,26.82
2017-08-28T10:45:08.109Z,26.78
2017-08-28T10:46:08.122Z,26.78
2017-08-28T10:47:08.416Z,26.74
2017-08-28T10:48:08.409Z,26.74
2017-08-28T10:49:08.409Z,26.73
2017-08-28T10:50:08.091Z,26.82
2017-08-28T10:51:08.407Z,26.82
2017-08-28T10:52:08.091Z,26.82
2017-08-28T10:53:08.097Z,26.74
2017-08-28T10:54:08.086Z,26.85
2017-08-28T10:55:08.099Z,26.86
2017-08-28T10:56:07.773Z,26.92
2017-08-28T10:57:08.184Z,26.93
2017-08-28T10:58:08.079Z,26.83
2017-08-28T10:59:07.765Z,26.91
2017-08-28T11:00:08.393Z,26.91
2017-08-28T11:01:08.081Z,26.91
2017-08-28T11:02:07.763Z,26.96
2017-08-28T11:03:07.764Z,27.04
2017-08-28T11:04:08.381Z,26.93
2017-08-28T11:05:08.392Z,27.03
2017-08-28T11:06:08.378Z,27.01
2017-08-28T11:07:08.381Z,27
2017-08-28T11:08:08.165Z,27.11
2017-08-28T11:09:08.064Z,27.22
2017-08-28T11:10:08.481Z,27.2
2017-08-28T11:11:08.472Z,27.19
2017-08-28T11:12:07.747Z,27.29
2017-08-28T11:13:08.369Z,27.16
2017-08-28T11:14:07.743Z,27.2
2017-08-28T11:15:08.370Z,27.15
2017-08-28T11:16:08.056Z,27.13
2017-08-28T11:17:08.364Z,27.2
2017-08-28T11:18:08.049Z,27.25
2017-08-28T11:19:08.361Z,27.28
2017-08-28T11:20:08.146Z,27.29
2017-08-28T11:21:08.045Z,27.34
2017-08-28T11:22:08.142Z,27.38
2017-08-28T11:23:07.730Z,27.38
2017-08-28T11:24:07.732Z,27.41
2017-08-28T11:25:08.069Z,27.34
2017-08-28T11:26:08.353Z,27.35
2017-08-28T11:27:08.037Z,27.4
2017-08-28T11:28:08.134Z,27.28
2017-08-28T11:29:08.349Z,27.37
2017-08-28T11:30:08.344Z,27.33
2017-08-28T11:31:08.346Z,27.35
2017-08-28T11:32:07.718Z,27.34
2017-08-28T11:33:07.817Z,27.53
2017-08-28T11:34:08.341Z,27.48
2017-08-28T11:35:08.027Z,27.52
2017-08-28T11:36:08.019Z,27.45
2017-08-28T11:37:08.026Z,27.48
2017-08-28T11:38:08.334Z,27.57
2017-08-28T11:39:08.330Z,27.47
2017-08-28T11:40:08.020Z,27.44
2017-08-28T11:41:08.015Z,27.47
2017-08-28T11:42:08.328Z,27.45
2017-08-28T11:43:08.014Z,27.44
2017-08-28T11:44:07.697Z,27.45
2017-08-28T11:45:08.008Z,27.58
2017-08-28T11:46:08.328Z,27.55
2017-08-28T11:47:08.322Z,27.5
2017-08-28T11:48:08.315Z,27.61
2017-08-28T11:49:08.008Z,27.6
2017-08-28T11:50:08.104Z,27.55
2017-08-28T11:51:08.004Z,27.67
2017-08-28T11:52:07.999Z,27.58
2017-08-28T11:53:08.000Z,27.58
2017-08-28T11:54:07.999Z,27.6
2017-08-28T11:55:07.685Z,27.71
2017-08-28T11:56:08.306Z,27.67
2017-08-28T11:57:07.681Z,27.68
2017-08-28T11:58:07.995Z,27.66
2017-08-28T11:59:07.676Z,27.72
2017-08-28T12:00:07.675Z,27.64
2017-08-28T12:01:08.335Z,27.71
2017-08-28T12:02:08.086Z,27.64
2017-08-28T12:03:07.673Z,27.67
2017-08-28T12:04:08.298Z,27.73
2017-08-28T12:05:08.293Z,27.64
2017-08-28T12:06:07.667Z,27.68
2017-08-28T12:07:08.179Z,27.67
2017-08-28T12:08:08.290Z,27.76
2017-08-28T12:09:07.762Z,27.86
2017-08-28T12:10:07.973Z,27.81
2017-08-28T12:11:07.972Z,27.88
2017-08-28T12:12:08.286Z,27.81
2017-08-28T12:13:08.284Z,27.82
2017-08-28T12:14:07.966Z,27.82
2017-08-28T12:15:07.967Z,27.9
2017-08-28T12:16:07.963Z,27.82
2017-08-28T12:17:07.753Z,27.83
2017-08-28T12:18:07.653Z,27.95
2017-08-28T12:19:07.958Z,27.94
2017-08-28T12:20:08.274Z,27.97
2017-08-28T12:21:07.650Z,28.12
2017-08-28T12:22:07.746Z,28.01
2017-08-28T12:23:07.742Z,28.06
2017-08-28T12:24:07.958Z,28.09
2017-08-28T12:25:07.953Z,28.06
2017-08-28T12:26:08.262Z,28.09
2017-08-28T12:27:07.636Z,28.04
2017-08-28T12:28:08.361Z,28.09
2017-08-28T12:29:07.946Z,28.23
2017-08-28T12:30:07.945Z,28.16
2017-08-28T12:31:07.946Z,28.2
2017-08-28T12:32:07.632Z,28.34
2017-08-28T12:33:08.260Z,28.28
2017-08-28T12:34:08.044Z,28.28
2017-08-28T12:35:08.041Z,28.27
2017-08-28T12:36:07.623Z,28.25
2017-08-28T12:37:08.251Z,28.31
2017-08-28T12:38:07.934Z,28.31
2017-08-28T12:39:07.622Z,28.23
2017-08-28T12:40:07.933Z,28.28
2017-08-28T12:41:07.617Z,28.23
2017-08-28T12:42:07.930Z,28.35
2017-08-28T12:43:07.928Z,28.33
2017-08-28T12:44:08.240Z,28.28
2017-08-28T12:45:08.243Z,28.33
2017-08-28T12:46:07.610Z,28.33
2017-08-28T12:47:08.237Z,28.37
2017-08-28T12:48:08.234Z,28.34
2017-08-28T12:49:07.923Z,28.45
2017-08-28T12:50:07.608Z,28.53
2017-08-28T12:51:08.232Z,28.57
2017-08-28T12:52:07.922Z,28.65
2017-08-28T12:53:07.916Z,28.72
2017-08-28T12:54:08.227Z,28.72
2017-08-28T12:55:07.913Z,28.83